Estherville, Iowa
Current Conditions -  °F | °C
As of 9:52 AM on Thursday 30 Oct 2014 (Local Time) from KEST Reporting Station
Overcast Overcast  
Wind Chill: 40°   Ceiling: 11000
Heat Index: 43°   Visibility: 10mi
Dew Point: 37°   Wind: 5mph
Humidity: 80%   Direction: 110°ESE
Pressure: 30.02"   Gusts: NA
Location:  43.4°N, 94.84°W
Report Text: KEST 301452Z AUTO 11004KT 10SM OVC110 06/03 A3002 RMK AO2 SLP176 T00610028 53006
Loading
Personal Weather Stations






























Interactive Weather Map New forecast layout! Learn more

10-Day Weather Forecast

Advertisements
Track Severe Weather on mobile